Startpagina
METAR-TAF:

METAR-TAF

Vliegvelden :

Córdoba, Argentinië

breedte: 31-19S, lengte: 064-13W, hoogte: 484 m

Actueel weer

Dit bericht is 29 minuten geleden gemaakt, om 21:00 UTC
Wind 9 kt uit het oosten
Temperatuur 21°C
Vochtigheid 38%
Druk 1020 hPa
Zicht 10 km of meer
geen wolken onder 1500 m en geen cumulonimbus

METAR: SACO 092100Z 08009KT CAVOK 21/06 Q1020 NOSIG

Tijdstip: 18:29 (21:29 UTC)

Verwachting

Dit bericht is 4 uur en het 29 minuten geleden gemaakt, om 17:00 UTC
Verwachting geldig van 09 om 18 UTC tot 10 om 18 UTC
Wind 10 kt uit het noordoosten
Zicht 10 km of meer
geen wolken onder 1500 m en geen cumulonimbus
Wijzigt naar
van 09 om 21 UTC tot 09 om 23 UTC
Wind 3 kt uit variabele richting
Zicht 10 km of meer
Verspreide wolken op 3000 ft
Wijzigt naar
van 10 om 13 UTC tot 10 om 16 UTC
Wind 10 kt uit het noordoosten
Zicht 10 km of meer
geen wolken onder 1500 m en geen cumulonimbus

TAF: SACO 091700Z 0918/1018 05010KT CAVOK TX23/0919Z TN12/1010Z BECMG 0921/0923 VRB03KT 9999 SCT030 BECMG 1013/1016 05010KT CAVOK

Waarnemingen en weersverwachtingen van meer dan 4000 vliegvelden (METAR en TAF).

De beschikbare stations zijn de gele en rode punten op de kaart.

Ga met uw muis naar het station om de naam te zien.

Klik dan om waarnemingen en weersverwachtingen te zien.

kaart wijzigen: klik op de groene knoppen met een zwart kruis om in te zoomen, op de groene knop met een streepje om uit te zoomen of op de groene pijlen voor aangrenzende kaarten.


METAR-TAF: